createdAt,value
2017-01-22T00:00:22.965Z,80
2017-01-22T00:01:23.571Z,80
2017-01-22T00:02:22.583Z,80
2017-01-22T00:03:23.400Z,80
2017-01-22T00:04:22.985Z,80
2017-01-22T00:05:22.942Z,80
2017-01-22T00:06:22.966Z,80
2017-01-22T00:07:23.446Z,80
2017-01-22T00:08:23.347Z,80
2017-01-22T00:09:23.404Z,80
2017-01-22T00:10:22.961Z,80
2017-01-22T00:11:22.994Z,80
2017-01-22T00:12:23.980Z,80
2017-01-22T00:13:23.081Z,80
2017-01-22T00:14:23.036Z,80
2017-01-22T00:15:22.648Z,80
2017-01-22T00:16:22.627Z,80
2017-01-22T00:17:23.001Z,80
2017-01-22T00:18:23.401Z,80
2017-01-22T00:19:22.669Z,80
2017-01-22T00:20:23.066Z,80
2017-01-22T00:21:24.043Z,80
2017-01-22T00:22:23.130Z,80
2017-01-22T00:23:22.235Z,80
2017-01-22T00:24:22.668Z,80
2017-01-22T00:25:23.243Z,80
2017-01-22T00:26:23.044Z,80
2017-01-22T00:27:23.495Z,80
2017-01-22T00:28:23.206Z,80
2017-01-22T00:29:22.664Z,80
2017-01-22T00:30:22.279Z,80
2017-01-22T00:31:23.128Z,80
2017-01-22T00:32:23.133Z,80
2017-01-22T00:33:23.532Z,80
2017-01-22T00:34:24.651Z,80
2017-01-22T00:35:22.754Z,80
2017-01-22T00:36:23.450Z,80
2017-01-22T00:37:22.760Z,80
2017-01-22T00:38:23.160Z,80
2017-01-22T00:39:23.117Z,80
2017-01-22T00:40:23.170Z,80
2017-01-22T00:41:23.224Z,80
2017-01-22T00:42:23.577Z,80
2017-01-22T00:43:38.066Z,80
2017-01-22T00:44:23.444Z,80
2017-01-22T00:45:24.693Z,80
2017-01-22T00:46:23.198Z,80
2017-01-22T00:47:23.958Z,80
2017-01-22T00:48:22.819Z,80
2017-01-22T00:49:23.168Z,80
2017-01-22T00:50:23.172Z,80
2017-01-22T00:51:23.226Z,80
2017-01-22T00:52:22.784Z,80
2017-01-22T00:53:22.790Z,80
2017-01-22T00:54:23.192Z,80
2017-01-22T00:55:22.413Z,80
2017-01-22T00:56:24.859Z,80
2017-01-22T00:57:23.259Z,80
2017-01-22T00:58:23.763Z,80
2017-01-22T00:59:23.318Z,80
2017-01-22T01:00:23.624Z,80
2017-01-22T01:01:22.835Z,80
2017-01-22T01:02:23.685Z,80
2017-01-22T01:03:22.895Z,80
2017-01-22T01:04:23.248Z,80
2017-01-22T01:05:22.956Z,80
2017-01-22T01:06:23.358Z,80
2017-01-22T01:07:23.262Z,80
2017-01-22T01:08:23.271Z,80
2017-01-22T01:09:24.370Z,80
2017-01-22T01:10:23.303Z,80
2017-01-22T01:11:23.677Z,80
2017-01-22T01:12:23.690Z,80
2017-01-22T01:13:37.830Z,80
2017-01-22T01:14:23.397Z,80
2017-01-22T01:15:23.703Z,80
2017-01-22T01:16:23.758Z,80
2017-01-22T01:17:23.317Z,80
2017-01-22T01:18:23.050Z,80
2017-01-22T01:19:23.328Z,80
2017-01-22T01:20:24.489Z,80
2017-01-22T01:21:23.488Z,80
2017-01-22T01:22:23.762Z,80
2017-01-22T01:23:23.739Z,80
2017-01-22T01:24:23.749Z,80
2017-01-22T01:25:23.358Z,80
2017-01-22T01:26:23.410Z,80
2017-01-22T01:27:23.414Z,80
2017-01-22T01:28:23.027Z,80
2017-01-22T01:29:23.843Z,80
2017-01-22T01:30:23.083Z,80
2017-01-22T01:31:22.598Z,80
2017-01-22T01:32:23.442Z,80
2017-01-22T01:33:23.469Z,80
2017-01-22T01:34:23.054Z,80
2017-01-22T01:35:23.040Z,80
2017-01-22T01:36:23.413Z,80
2017-01-22T01:37:23.466Z,80
2017-01-22T01:38:23.724Z,80
2017-01-22T01:39:23.051Z,80
2017-01-22T01:40:23.436Z,80
2017-01-22T01:41:23.094Z,80
2017-01-22T01:42:23.048Z,80
2017-01-22T01:43:23.899Z,80
2017-01-22T01:44:23.057Z,80
2017-01-22T01:45:23.462Z,80
2017-01-22T01:46:23.460Z,80
2017-01-22T01:47:23.568Z,80
2017-01-22T01:48:23.874Z,80
2017-01-22T01:49:23.930Z,80
2017-01-22T01:50:23.090Z,80
2017-01-22T01:51:23.588Z,80
2017-01-22T01:52:23.550Z,80
2017-01-22T01:53:23.105Z,80
2017-01-22T01:54:23.951Z,80
2017-01-22T01:55:23.933Z,80
2017-01-22T01:56:23.516Z,80
2017-01-22T01:57:23.623Z,80
2017-01-22T01:58:23.229Z,80
2017-01-22T01:59:24.028Z,80
2017-01-22T02:00:24.693Z,80
2017-01-22T02:01:23.617Z,80
2017-01-22T02:02:23.553Z,80
2017-01-22T02:03:23.271Z,80
2017-01-22T02:04:23.234Z,80
2017-01-22T02:05:23.516Z,80
2017-01-22T02:06:23.642Z,80
2017-01-22T02:07:23.628Z,80
2017-01-22T02:08:23.629Z,80
2017-01-22T02:09:23.190Z,80
2017-01-22T02:10:23.191Z,80
2017-01-22T02:11:24.313Z,80
2017-01-22T02:12:23.229Z,80
2017-01-22T02:13:23.700Z,80
2017-01-22T02:14:23.607Z,80
2017-01-22T02:15:23.318Z,80
2017-01-22T02:16:23.182Z,80
2017-01-22T02:17:23.623Z,80
2017-01-22T02:18:23.235Z,80
2017-01-22T02:19:22.871Z,80
2017-01-22T02:20:24.040Z,80
2017-01-22T02:21:22.909Z,80
2017-01-22T02:22:24.541Z,80
2017-01-22T02:23:23.314Z,80
2017-01-22T02:24:23.914Z,80
2017-01-22T02:25:23.390Z,80
2017-01-22T02:26:23.636Z,80
2017-01-22T02:27:23.287Z,80
2017-01-22T02:28:23.733Z,80
2017-01-22T02:29:23.398Z,80
2017-01-22T02:30:23.696Z,80
2017-01-22T02:31:23.745Z,80
2017-01-22T02:32:23.705Z,80
2017-01-22T02:33:23.370Z,80
2017-01-22T02:34:23.816Z,80
2017-01-22T02:35:24.818Z,80
2017-01-22T02:36:23.778Z,80
2017-01-22T02:37:24.229Z,80
2017-01-22T02:38:23.390Z,80
2017-01-22T02:39:23.744Z,80
2017-01-22T02:40:22.954Z,80
2017-01-22T02:41:23.756Z,80
2017-01-22T02:42:23.707Z,80
2017-01-22T02:43:23.865Z,80
2017-01-22T02:44:23.420Z,80
2017-01-22T02:45:24.215Z,80
2017-01-22T02:46:25.021Z,80
2017-01-22T02:47:23.434Z,80
2017-01-22T02:48:24.144Z,80
2017-01-22T02:49:24.233Z,80
2017-01-22T02:50:23.468Z,80
2017-01-22T02:51:23.900Z,80
2017-01-22T02:52:23.867Z,80
2017-01-22T02:53:23.963Z,80
2017-01-22T02:54:23.820Z,80
2017-01-22T02:55:23.476Z,80
2017-01-22T02:56:23.830Z,80
2017-01-22T02:57:25.035Z,80
2017-01-22T02:58:23.094Z,80
2017-01-22T02:59:24.449Z,80
2017-01-22T03:00:23.849Z,80
2017-01-22T03:01:23.884Z,80
2017-01-22T03:02:23.911Z,80
2017-01-22T03:03:23.279Z,80
2017-01-22T03:04:23.080Z,80
2017-01-22T03:05:23.134Z,80
2017-01-22T03:06:23.930Z,80
2017-01-22T03:07:23.540Z,80
2017-01-22T03:08:25.049Z,80
2017-01-22T03:09:23.898Z,80
2017-01-22T03:10:24.750Z,80
2017-01-22T03:11:24.056Z,80
2017-01-22T03:12:23.912Z,80
2017-01-22T03:13:38.405Z,80
2017-01-22T03:14:24.419Z,80
2017-01-22T03:15:23.975Z,80
2017-01-22T03:16:23.538Z,80
2017-01-22T03:17:23.548Z,80
2017-01-22T03:18:23.996Z,80
2017-01-22T03:19:23.551Z,80
2017-01-22T03:20:23.559Z,80
2017-01-22T03:21:25.010Z,80
2017-01-22T03:22:24.010Z,80
2017-01-22T03:23:23.624Z,80
2017-01-22T03:24:23.678Z,80
2017-01-22T03:25:24.081Z,80
2017-01-22T03:26:23.198Z,80
2017-01-22T03:27:24.385Z,80
2017-01-22T03:28:24.396Z,80
2017-01-22T03:29:24.106Z,80
2017-01-22T03:30:24.004Z,80
2017-01-22T03:31:24.013Z,80
2017-01-22T03:32:23.618Z,80
2017-01-22T03:33:24.417Z,80
2017-01-22T03:34:23.731Z,80
2017-01-22T03:35:24.527Z,80
2017-01-22T03:36:23.644Z,80
2017-01-22T03:37:23.298Z,80
2017-01-22T03:38:24.492Z,80
2017-01-22T03:39:24.657Z,80
2017-01-22T03:40:24.161Z,80
2017-01-22T03:41:24.460Z,80
2017-01-22T03:42:24.120Z,80
2017-01-22T03:43:24.073Z,80
2017-01-22T03:44:23.339Z,80
2017-01-22T03:45:23.290Z,80
2017-01-22T03:46:24.138Z,80
2017-01-22T03:47:24.541Z,80
2017-01-22T03:48:24.496Z,80
2017-01-22T03:49:24.504Z,80
2017-01-22T03:50:24.469Z,80
2017-01-22T03:51:23.774Z,80
2017-01-22T03:52:24.259Z,80
2017-01-22T03:53:24.523Z,80
2017-01-22T03:54:23.788Z,80
2017-01-22T03:55:23.839Z,80
2017-01-22T03:56:24.537Z,80
2017-01-22T03:57:24.201Z,80
2017-01-22T03:58:23.806Z,80
2017-01-22T03:59:24.625Z,80
2017-01-22T04:00:23.766Z,80
2017-01-22T04:01:25.022Z,80
2017-01-22T04:02:24.175Z,80
2017-01-22T04:03:25.033Z,80
2017-01-22T04:04:23.887Z,80
2017-01-22T04:05:23.800Z,80
2017-01-22T04:06:23.850Z,80
2017-01-22T04:07:23.804Z,80
2017-01-22T04:08:23.864Z,80
2017-01-22T04:09:24.308Z,80
2017-01-22T04:10:23.873Z,80
2017-01-22T04:11:24.272Z,80
2017-01-22T04:12:25.452Z,80
2017-01-22T04:13:24.330Z,80
2017-01-22T04:14:25.144Z,80
2017-01-22T04:15:24.343Z,80
2017-01-22T04:16:23.909Z,80
2017-01-22T04:17:24.253Z,80
2017-01-22T04:18:24.256Z,80
2017-01-22T04:19:24.707Z,80
2017-01-22T04:20:24.274Z,80
2017-01-22T04:21:24.273Z,80
2017-01-22T04:22:24.673Z,80
2017-01-22T04:23:26.188Z,80
2017-01-22T04:24:24.337Z,80
2017-01-22T04:25:25.447Z,80
2017-01-22T04:26:24.006Z,80
2017-01-22T04:27:24.707Z,80
2017-01-22T04:28:23.968Z,80
2017-01-22T04:29:23.969Z,80
2017-01-22T04:30:24.027Z,80
2017-01-22T04:31:24.428Z,80
2017-01-22T04:32:23.596Z,80
2017-01-22T04:33:23.995Z,80
2017-01-22T04:34:24.391Z,80
2017-01-22T04:35:24.400Z,80
2017-01-22T04:36:25.808Z,80
2017-01-22T04:37:24.359Z,80
2017-01-22T04:38:23.968Z,80
2017-01-22T04:39:24.024Z,80
2017-01-22T04:40:23.979Z,80
2017-01-22T04:41:24.430Z,80
2017-01-22T04:42:23.590Z,80
2017-01-22T04:43:24.451Z,80
2017-01-22T04:44:24.051Z,80
2017-01-22T04:45:24.205Z,80
2017-01-22T04:46:24.012Z,80
2017-01-22T04:47:24.418Z,80
2017-01-22T04:48:24.024Z,80
2017-01-22T04:49:24.077Z,80
2017-01-22T04:50:24.476Z,80
2017-01-22T04:51:24.531Z,80
2017-01-22T04:52:24.093Z,80
2017-01-22T04:53:24.493Z,80
2017-01-22T04:54:24.049Z,80
2017-01-22T04:55:24.848Z,80
2017-01-22T04:56:24.558Z,80
2017-01-22T04:57:24.116Z,80
2017-01-22T04:58:24.566Z,80
2017-01-22T04:59:24.079Z,80
2017-01-22T05:00:24.085Z,80
2017-01-22T05:01:24.143Z,80
2017-01-22T05:02:24.590Z,80
2017-01-22T05:03:24.098Z,80
2017-01-22T05:04:24.105Z,80
2017-01-22T05:05:24.897Z,80
2017-01-22T05:06:24.236Z,80
2017-01-22T05:07:25.165Z,80
2017-01-22T05:08:24.566Z,80
2017-01-22T05:09:24.427Z,80
2017-01-22T05:10:24.529Z,80
2017-01-22T05:11:24.932Z,80
2017-01-22T05:12:24.243Z,80
2017-01-22T05:13:24.151Z,80
2017-01-22T05:14:24.550Z,80
2017-01-22T05:15:23.764Z,80
2017-01-22T05:16:25.004Z,80
2017-01-22T05:17:24.217Z,80
2017-01-22T05:18:25.328Z,80
2017-01-22T05:19:25.069Z,80
2017-01-22T05:20:24.692Z,80
2017-01-22T05:21:24.191Z,80
2017-01-22T05:22:24.248Z,80
2017-01-22T05:23:24.645Z,80
2017-01-22T05:24:24.261Z,80
2017-01-22T05:25:24.609Z,80
2017-01-22T05:26:23.827Z,80
2017-01-22T05:27:23.924Z,80
2017-01-22T05:28:24.225Z,80
2017-01-22T05:29:25.779Z,80
2017-01-22T05:30:24.289Z,80
2017-01-22T05:31:25.040Z,80
2017-01-22T05:32:24.745Z,80
2017-01-22T05:33:24.249Z,80
2017-01-22T05:34:25.099Z,80
2017-01-22T05:35:24.660Z,80
2017-01-22T05:36:25.159Z,80
2017-01-22T05:37:24.670Z,80
2017-01-22T05:38:24.673Z,80
2017-01-22T05:39:25.155Z,80
2017-01-22T05:40:26.185Z,80
2017-01-22T05:41:25.135Z,80
2017-01-22T05:42:25.169Z,80
2017-01-22T05:43:24.010Z,80
2017-01-22T05:44:25.101Z,80
2017-01-22T05:45:24.317Z,80
2017-01-22T05:46:24.761Z,80
2017-01-22T05:47:24.768Z,80
2017-01-22T05:48:24.336Z,80
2017-01-22T05:49:24.404Z,80
2017-01-22T05:50:24.391Z,80
2017-01-22T05:51:24.001Z,80
2017-01-22T05:52:24.452Z,80
2017-01-22T05:53:25.503Z,80
2017-01-22T05:54:24.357Z,80
2017-01-22T05:55:24.761Z,80
2017-01-22T05:56:24.765Z,80
2017-01-22T05:57:24.379Z,80
2017-01-22T05:58:23.982Z,80
2017-01-22T05:59:25.225Z,80
2017-01-22T06:00:23.994Z,80
2017-01-22T06:01:24.797Z,80
2017-01-22T06:02:24.802Z,80
2017-01-22T06:03:24.507Z,80
2017-01-22T06:04:26.253Z,80
2017-01-22T06:05:25.213Z,80
2017-01-22T06:06:24.870Z,80
2017-01-22T06:07:24.530Z,80
2017-01-22T06:08:24.139Z,80
2017-01-22T06:09:24.882Z,80
2017-01-22T06:10:24.839Z,80
2017-01-22T06:11:24.498Z,80
2017-01-22T06:12:24.458Z,80
2017-01-22T06:13:24.462Z,80
2017-01-22T06:14:24.910Z,80
2017-01-22T06:15:26.747Z,80
2017-01-22T06:16:25.316Z,80
2017-01-22T06:17:24.188Z,80
2017-01-22T06:18:24.880Z,80
2017-01-22T06:19:24.940Z,80
2017-01-22T06:20:24.996Z,80
2017-01-22T06:21:24.896Z,80
2017-01-22T06:22:25.401Z,80
2017-01-22T06:23:25.010Z,80
2017-01-22T06:24:24.869Z,80
2017-01-22T06:25:25.413Z,80
2017-01-22T06:26:24.975Z,80
2017-01-22T06:27:25.378Z,80
2017-01-22T06:28:24.988Z,80
2017-01-22T06:29:24.543Z,80
2017-01-22T06:30:24.943Z,80
2017-01-22T06:31:24.159Z,80
2017-01-22T06:32:24.563Z,80
2017-01-22T06:33:24.619Z,80
2017-01-22T06:34:24.621Z,80
2017-01-22T06:35:25.075Z,80
2017-01-22T06:36:24.629Z,80
2017-01-22T06:37:24.982Z,80
2017-01-22T06:38:25.387Z,80
2017-01-22T06:39:25.840Z,80
2017-01-22T06:40:24.202Z,80
2017-01-22T06:41:24.610Z,80
2017-01-22T06:42:24.664Z,80
2017-01-22T06:43:25.065Z,80
2017-01-22T06:44:24.624Z,80
2017-01-22T06:45:25.027Z,80
2017-01-22T06:46:25.443Z,80
2017-01-22T06:47:25.032Z,80
2017-01-22T06:48:25.039Z,80
2017-01-22T06:49:24.652Z,80
2017-01-22T06:50:24.708Z,80
2017-01-22T06:51:25.058Z,80
2017-01-22T06:52:25.110Z,80
2017-01-22T06:53:24.272Z,84
2017-01-22T06:54:24.725Z,80
2017-01-22T06:55:24.681Z,80
2017-01-22T06:56:24.789Z,84
2017-01-22T06:57:25.642Z,80
2017-01-22T06:58:25.090Z,80
2017-01-22T06:59:25.595Z,84
2017-01-22T07:00:25.547Z,80
2017-01-22T07:01:25.465Z,84
2017-01-22T07:02:25.161Z,84
2017-01-22T07:03:24.825Z,88
2017-01-22T07:04:25.177Z,88
2017-01-22T07:05:25.128Z,84
2017-01-22T07:06:25.181Z,88
2017-01-22T07:07:25.240Z,88
2017-01-22T07:08:26.539Z,88
2017-01-22T07:09:25.147Z,92
2017-01-22T07:10:25.758Z,92
2017-01-22T07:11:24.866Z,92
2017-01-22T07:12:25.218Z,96
2017-01-22T07:13:24.481Z,96
2017-01-22T07:14:24.833Z,100
2017-01-22T07:15:24.836Z,100
2017-01-22T07:16:25.188Z,104
2017-01-22T07:17:25.198Z,108
2017-01-22T07:18:24.428Z,108
2017-01-22T07:19:26.548Z,112
2017-01-22T07:20:24.868Z,112
2017-01-22T07:21:26.217Z,120
2017-01-22T07:22:25.365Z,120
2017-01-22T07:23:25.271Z,120
2017-01-22T07:24:25.278Z,124
2017-01-22T07:25:25.331Z,132
2017-01-22T07:26:25.336Z,132
2017-01-22T07:27:25.740Z,136
2017-01-22T07:28:25.645Z,140
2017-01-22T07:29:25.652Z,144
2017-01-22T07:30:26.738Z,148
2017-01-22T07:31:24.923Z,152
2017-01-22T07:32:26.519Z,156
2017-01-22T07:33:24.531Z,160
2017-01-22T07:34:25.731Z,168
2017-01-22T07:35:25.343Z,172
2017-01-22T07:36:25.341Z,176
2017-01-22T07:37:25.691Z,180
2017-01-22T07:38:25.351Z,188
2017-01-22T07:39:25.064Z,192
2017-01-22T07:40:25.374Z,196
2017-01-22T07:41:25.418Z,204
2017-01-22T07:42:25.822Z,208
2017-01-22T07:43:26.829Z,216
2017-01-22T07:44:25.783Z,216
2017-01-22T07:45:25.391Z,228
2017-01-22T07:46:24.552Z,232
2017-01-22T07:47:25.004Z,240
2017-01-22T07:48:25.402Z,248
2017-01-22T07:49:25.877Z,252
2017-01-22T07:50:25.469Z,256
2017-01-22T07:51:25.421Z,264
2017-01-22T07:52:25.522Z,268
2017-01-22T07:53:25.381Z,276
2017-01-22T07:54:24.646Z,284
2017-01-22T07:55:25.445Z,288
2017-01-22T07:56:24.606Z,296
2017-01-22T07:57:25.064Z,300
2017-01-22T07:58:25.462Z,308
2017-01-22T07:59:25.068Z,316
2017-01-22T08:00:25.475Z,324
2017-01-22T08:01:25.826Z,324
2017-01-22T08:02:25.480Z,332
2017-01-22T08:03:25.846Z,340
2017-01-22T08:04:25.092Z,348
2017-01-22T08:05:25.546Z,352
2017-01-22T08:06:25.454Z,356
2017-01-22T08:07:25.475Z,364
2017-01-22T08:08:25.558Z,368
2017-01-22T08:09:24.674Z,376
2017-01-22T08:10:25.569Z,384
2017-01-22T08:11:25.525Z,388
2017-01-22T08:12:26.530Z,396
2017-01-22T08:13:25.187Z,400
2017-01-22T08:14:26.192Z,408
2017-01-22T08:15:25.203Z,408
2017-01-22T08:16:25.262Z,412
2017-01-22T08:17:25.109Z,420
2017-01-22T08:18:24.768Z,424
2017-01-22T08:19:25.172Z,432
2017-01-22T08:20:25.526Z,440
2017-01-22T08:21:25.628Z,444
2017-01-22T08:22:25.195Z,448
2017-01-22T08:23:26.699Z,456
2017-01-22T08:24:25.594Z,460
2017-01-22T08:25:26.452Z,464
2017-01-22T08:26:25.955Z,468
2017-01-22T08:27:25.712Z,476
2017-01-22T08:28:25.617Z,484
2017-01-22T08:29:24.776Z,488
2017-01-22T08:30:25.230Z,492
2017-01-22T08:31:25.232Z,496
2017-01-22T08:32:25.288Z,504
2017-01-22T08:33:25.937Z,508
2017-01-22T08:34:27.063Z,512
2017-01-22T08:35:25.653Z,516
2017-01-22T08:36:27.557Z,524
2017-01-22T08:37:25.213Z,532
2017-01-22T08:38:25.920Z,532
2017-01-22T08:39:24.830Z,544
2017-01-22T08:40:25.678Z,556
2017-01-22T08:41:24.839Z,560
2017-01-22T08:42:25.293Z,576
2017-01-22T08:43:25.298Z,584
2017-01-22T08:44:25.302Z,592
2017-01-22T08:45:25.259Z,604
2017-01-22T08:46:25.659Z,624
2017-01-22T08:47:27.337Z,672
2017-01-22T08:48:25.720Z,900
2017-01-22T08:49:26.584Z,1252
2017-01-22T08:50:25.286Z,1496
2017-01-22T08:51:24.947Z,1724
2017-01-22T08:52:26.141Z,1836
2017-01-22T08:53:25.699Z,1972
2017-01-22T08:54:25.713Z,2104
2017-01-22T08:55:25.715Z,2240
2017-01-22T08:56:25.381Z,2280
2017-01-22T08:57:25.340Z,2248
2017-01-22T08:58:25.340Z,2268
2017-01-22T08:59:26.142Z,2196
2017-01-22T09:00:26.906Z,2188
2017-01-22T09:01:25.413Z,2172
2017-01-22T09:02:25.423Z,2224
2017-01-22T09:03:26.174Z,2248
2017-01-22T09:04:25.787Z,2268
2017-01-22T09:05:25.401Z,2300
2017-01-22T09:06:25.899Z,2408
2017-01-22T09:07:26.016Z,2524
2017-01-22T09:08:25.075Z,2536
2017-01-22T09:09:25.880Z,2540
2017-01-22T09:10:25.841Z,2560
2017-01-22T09:11:25.843Z,2520
2017-01-22T09:12:25.507Z,2460
2017-01-22T09:13:25.521Z,2456
2017-01-22T09:14:25.477Z,2428
2017-01-22T09:15:25.934Z,2440
2017-01-22T09:16:26.441Z,2428
2017-01-22T09:17:25.505Z,2400
2017-01-22T09:18:26.365Z,2376
2017-01-22T09:19:26.314Z,2388
2017-01-22T09:20:26.185Z,2428
2017-01-22T09:21:26.341Z,2516
2017-01-22T09:22:26.001Z,2532
2017-01-22T09:23:26.061Z,2516
2017-01-22T09:24:26.444Z,2548
2017-01-22T09:25:26.130Z,2588
2017-01-22T09:26:26.042Z,2624
2017-01-22T09:27:25.997Z,2684
2017-01-22T09:28:25.664Z,2676
2017-01-22T09:29:26.825Z,2720
2017-01-22T09:30:25.735Z,2760
2017-01-22T09:31:26.153Z,2716
2017-01-22T09:32:26.005Z,2656
2017-01-22T09:33:25.815Z,2768
2017-01-22T09:34:26.124Z,2912
2017-01-22T09:35:25.686Z,3180
2017-01-22T09:36:26.540Z,3472
2017-01-22T09:37:25.755Z,3732
2017-01-22T09:38:25.768Z,3780
2017-01-22T09:39:26.567Z,3688
2017-01-22T09:40:26.181Z,3956
2017-01-22T09:41:26.139Z,4376
2017-01-22T09:42:27.254Z,4508
2017-01-22T09:43:40.296Z,4608
2017-01-22T09:44:26.522Z,4536
2017-01-22T09:45:25.781Z,4600
2017-01-22T09:46:26.489Z,4748
2017-01-22T09:47:26.296Z,4844
2017-01-22T09:48:26.202Z,4864
2017-01-22T09:49:25.866Z,4700
2017-01-22T09:50:26.324Z,4764
2017-01-22T09:51:26.276Z,4748
2017-01-22T09:52:26.290Z,4932
2017-01-22T09:53:27.693Z,5200
2017-01-22T09:54:26.304Z,5132
2017-01-22T09:55:26.953Z,4116
2017-01-22T09:56:26.320Z,3708
2017-01-22T09:57:26.274Z,4196
2017-01-22T09:58:25.940Z,4564
2017-01-22T09:59:26.290Z,4420
2017-01-22T10:00:26.296Z,3180
2017-01-22T10:01:25.960Z,2036
2017-01-22T10:02:26.365Z,1884
2017-01-22T10:03:25.923Z,1740
2017-01-22T10:04:28.299Z,1584
2017-01-22T10:05:26.785Z,1600
2017-01-22T10:06:27.639Z,1600
2017-01-22T10:07:26.400Z,1580
2017-01-22T10:08:26.407Z,1552
2017-01-22T10:09:26.364Z,1496
2017-01-22T10:10:26.372Z,1456
2017-01-22T10:11:26.127Z,1476
2017-01-22T10:12:26.781Z,1448
2017-01-22T10:13:26.792Z,1416
2017-01-22T10:14:26.106Z,1400
2017-01-22T10:15:26.404Z,1384
2017-01-22T10:16:26.807Z,1360
2017-01-22T10:17:26.471Z,1332
2017-01-22T10:18:26.028Z,1292
2017-01-22T10:19:25.741Z,1256
2017-01-22T10:20:26.097Z,1212
2017-01-22T10:21:26.401Z,1172
2017-01-22T10:22:26.856Z,1140
2017-01-22T10:23:26.113Z,1116
2017-01-22T10:24:27.236Z,1096
2017-01-22T10:25:26.476Z,1064
2017-01-22T10:26:26.580Z,1024
2017-01-22T10:27:26.883Z,980
2017-01-22T10:28:26.547Z,960
2017-01-22T10:29:26.654Z,952
2017-01-22T10:30:26.166Z,944
2017-01-22T10:31:26.120Z,928
2017-01-22T10:32:26.920Z,912
2017-01-22T10:33:26.135Z,904
2017-01-22T10:34:26.191Z,888
2017-01-22T10:35:27.845Z,864
2017-01-22T10:36:26.208Z,848
2017-01-22T10:37:27.013Z,840
2017-01-22T10:38:26.614Z,836
2017-01-22T10:39:26.227Z,824
2017-01-22T10:40:26.973Z,812
2017-01-22T10:41:26.588Z,804
2017-01-22T10:42:27.144Z,800
2017-01-22T10:43:26.253Z,788
2017-01-22T10:44:27.049Z,780
2017-01-22T10:45:26.634Z,776
2017-01-22T10:46:28.512Z,776
2017-01-22T10:47:26.283Z,768
2017-01-22T10:48:27.741Z,768
2017-01-22T10:49:26.242Z,764
2017-01-22T10:50:26.351Z,760
2017-01-22T10:51:26.650Z,760
2017-01-22T10:52:26.262Z,752
2017-01-22T10:53:26.321Z,748
2017-01-22T10:54:25.883Z,740
2017-01-22T10:55:26.354Z,732
2017-01-22T10:56:26.682Z,732
2017-01-22T10:57:26.740Z,728
2017-01-22T10:58:26.696Z,720
2017-01-22T10:59:28.149Z,716
2017-01-22T11:00:26.708Z,720
2017-01-22T11:01:26.716Z,720
2017-01-22T11:02:26.051Z,716
2017-01-22T11:03:26.340Z,716
2017-01-22T11:04:26.733Z,712
2017-01-22T11:05:26.838Z,716
2017-01-22T11:06:27.396Z,716
2017-01-22T11:07:26.506Z,712
2017-01-22T11:08:26.819Z,724
2017-01-22T11:09:26.771Z,728
2017-01-22T11:10:26.769Z,732
2017-01-22T11:11:26.382Z,732
2017-01-22T11:12:26.438Z,736
2017-01-22T11:13:27.232Z,736
2017-01-22T11:14:26.849Z,740
2017-01-22T11:15:26.852Z,736
2017-01-22T11:16:26.472Z,744
2017-01-22T11:17:26.418Z,740
2017-01-22T11:18:26.572Z,736
2017-01-22T11:19:27.332Z,728
2017-01-22T11:20:26.508Z,716
2017-01-22T11:21:26.637Z,720
2017-01-22T11:22:26.474Z,720
2017-01-22T11:23:26.848Z,716
2017-01-22T11:24:26.166Z,720
2017-01-22T11:25:26.912Z,704
2017-01-22T11:26:26.525Z,704
2017-01-22T11:27:26.477Z,696
2017-01-22T11:28:26.881Z,688
2017-01-22T11:29:26.935Z,688
2017-01-22T11:30:27.892Z,684
2017-01-22T11:31:26.893Z,688
2017-01-22T11:32:27.254Z,700
2017-01-22T11:33:26.172Z,700
2017-01-22T11:34:27.337Z,704
2017-01-22T11:35:26.528Z,700
2017-01-22T11:36:26.972Z,696
2017-01-22T11:37:26.985Z,696
2017-01-22T11:38:26.540Z,700
2017-01-22T11:39:27.338Z,708
2017-01-22T11:40:26.957Z,708
2017-01-22T11:41:26.560Z,720
2017-01-22T11:42:26.664Z,724
2017-01-22T11:43:56.000Z,728
2017-01-22T11:44:26.975Z,728
2017-01-22T11:45:27.082Z,732
2017-01-22T11:46:26.588Z,736
2017-01-22T11:47:27.484Z,732
2017-01-22T11:48:26.603Z,728
2017-01-22T11:49:26.659Z,728
2017-01-22T11:50:26.610Z,720
2017-01-22T11:51:26.616Z,720
2017-01-22T11:52:27.069Z,724
2017-01-22T11:53:26.629Z,720
2017-01-22T11:54:28.082Z,716
2017-01-22T11:55:27.041Z,720
2017-01-22T11:56:27.141Z,716
2017-01-22T11:57:26.652Z,716
2017-01-22T11:58:26.715Z,716
2017-01-22T11:59:27.109Z,712
2017-01-22T12:00:27.118Z,704
2017-01-22T12:01:27.118Z,704
2017-01-22T12:02:27.526Z,696
2017-01-22T12:03:26.738Z,696
2017-01-22T12:04:27.085Z,700
2017-01-22T12:05:28.096Z,700
2017-01-22T12:06:26.855Z,696
2017-01-22T12:07:26.768Z,700
2017-01-22T12:08:26.830Z,696
2017-01-22T12:09:26.722Z,696
2017-01-22T12:10:27.123Z,692
2017-01-22T12:11:27.177Z,692
2017-01-22T12:12:26.809Z,692
2017-01-22T12:13:28.745Z,688
2017-01-22T12:14:27.197Z,688
2017-01-22T12:15:27.544Z,684
2017-01-22T12:16:26.466Z,676
2017-01-22T12:17:27.666Z,672
2017-01-22T12:18:27.565Z,668
2017-01-22T12:19:26.879Z,664
2017-01-22T12:20:27.230Z,660
2017-01-22T12:21:27.631Z,656
2017-01-22T12:22:27.692Z,648
2017-01-22T12:23:27.201Z,648
2017-01-22T12:24:27.251Z,644
2017-01-22T12:25:27.910Z,640
2017-01-22T12:26:27.268Z,636
2017-01-22T12:27:27.226Z,632
2017-01-22T12:28:27.524Z,628
2017-01-22T12:29:28.335Z,624
2017-01-22T12:30:27.235Z,616
2017-01-22T12:31:27.292Z,612
2017-01-22T12:32:27.803Z,608
2017-01-22T12:33:27.306Z,604
2017-01-22T12:34:26.862Z,604
2017-01-22T12:35:27.565Z,600
2017-01-22T12:36:28.371Z,596
2017-01-22T12:37:27.430Z,588
2017-01-22T12:38:27.778Z,584
2017-01-22T12:39:27.288Z,588
2017-01-22T12:40:26.896Z,580
2017-01-22T12:41:27.314Z,576
2017-01-22T12:42:27.305Z,572
2017-01-22T12:43:26.674Z,572
2017-01-22T12:44:27.714Z,568
2017-01-22T12:45:26.929Z,568
2017-01-22T12:46:27.428Z,568
2017-01-22T12:47:28.729Z,568
2017-01-22T12:48:27.783Z,564
2017-01-22T12:49:28.545Z,560
2017-01-22T12:50:26.951Z,560
2017-01-22T12:51:26.558Z,564
2017-01-22T12:52:27.809Z,560
2017-01-22T12:53:27.757Z,560
2017-01-22T12:54:27.574Z,560
2017-01-22T12:55:27.523Z,556
2017-01-22T12:56:27.046Z,548
2017-01-22T12:57:26.995Z,552
2017-01-22T12:58:27.097Z,552
2017-01-22T12:59:27.494Z,552
2017-01-22T13:00:28.975Z,544
2017-01-22T13:01:27.950Z,544
2017-01-22T13:02:27.856Z,544
2017-01-22T13:03:27.465Z,544
2017-01-22T13:04:27.525Z,544
2017-01-22T13:05:27.879Z,544
2017-01-22T13:06:27.831Z,544
2017-01-22T13:07:28.006Z,540
2017-01-22T13:08:26.705Z,540
2017-01-22T13:09:29.005Z,540
2017-01-22T13:10:27.958Z,536
2017-01-22T13:11:28.061Z,540
2017-01-22T13:12:27.076Z,536
2017-01-22T13:13:26.782Z,536
2017-01-22T13:14:27.178Z,540
2017-01-22T13:15:27.511Z,536
2017-01-22T13:16:27.936Z,536
2017-01-22T13:17:27.204Z,536
2017-01-22T13:18:27.204Z,532
2017-01-22T13:19:27.553Z,536
2017-01-22T13:20:28.819Z,532
2017-01-22T13:21:27.172Z,532
2017-01-22T13:22:28.016Z,532
2017-01-22T13:23:28.024Z,532
2017-01-22T13:24:27.586Z,532
2017-01-22T13:25:28.032Z,528
2017-01-22T13:26:27.755Z,528
2017-01-22T13:27:27.204Z,528
2017-01-22T13:28:27.604Z,528
2017-01-22T13:29:27.262Z,524
2017-01-22T13:30:28.063Z,528
2017-01-22T13:31:28.426Z,524
2017-01-22T13:32:27.792Z,532
2017-01-22T13:33:27.678Z,536
2017-01-22T13:34:27.192Z,548
2017-01-22T13:35:27.244Z,564
2017-01-22T13:36:27.998Z,608
2017-01-22T13:37:27.261Z,876
2017-01-22T13:38:27.708Z,1656
2017-01-22T13:39:28.112Z,2144
2017-01-22T13:40:27.618Z,2024
2017-01-22T13:41:28.076Z,1544
2017-01-22T13:42:28.282Z,856
2017-01-22T13:43:27.295Z,852
2017-01-22T13:44:27.695Z,1000
2017-01-22T13:45:27.703Z,1028
2017-01-22T13:46:28.371Z,820
2017-01-22T13:47:27.267Z,636
2017-01-22T13:48:26.976Z,568
2017-01-22T13:49:27.326Z,576
2017-01-22T13:50:27.436Z,788
2017-01-22T13:51:27.688Z,924
2017-01-22T13:52:27.302Z,1112
2017-01-22T13:53:28.348Z,1176
2017-01-22T13:54:27.658Z,932
2017-01-22T13:55:29.291Z,908
2017-01-22T13:56:28.163Z,1064
2017-01-22T13:57:28.428Z,956